Terminal Aerodrome Forecast
Issued by NWS Louisville, KY

Home | Current Version | Previous Version | Text Only | Print | Product List | Glossary On
Versions: 1 2 3 4 5 6 7 8 9 10 11 12 13 14
241
FTUS43 KLMK 260524
TAFLEX
TAF
KLEX 260524Z 2606/2706 19004KT P6SM FEW045 SCT250
     FM261400 21005KT P6SM -SHRA VCTS BKN030CB
     FM261700 22005KT P6SM BKN030 BKN140 PROB30 2619/2624 4SM -TSRA
      OVC025CB=

USA.gov is the U.S. government's official web portal to all federal, state and local government web resources and services.